Time,TemperatureF,DewpointF,PressureIn,WindDirection,WindDirectionDegrees,WindSpeedMPH,WindSpeedGustMPH,Humidity,HourlyPrecipIn,Conditions,Clouds,dailyrainin,SolarRadiationWatts/m^2,SoftwareType,DateUTC
2013-05-28 00:11:00,37.0,36.0,-100.00,SW,224,0.0,2.0,96,0.00,,,0.01,2.000000,,2013-05-28 08:11:00,
2013-05-28 00:21:00,37.0,36.0,-100.00,SW,224,0.0,2.0,96,0.00,,,0.01,2.000000,,2013-05-28 08:21:00,
2013-05-28 00:32:00,37.0,36.0,-100.00,SW,224,0.0,2.0,96,0.00,,,0.01,2.000000,,2013-05-28 08:32:00,
2013-05-28 00:42:00,37.0,36.0,-100.00,SW,224,0.0,2.0,96,0.00,,,0.01,2.000000,,2013-05-28 08:42:00,
2013-05-28 00:51:00,37.0,36.0,-100.00,SW,224,0.0,2.0,96,0.00,,,0.01,2.000000,,2013-05-28 08:51:00,
2013-05-28 01:11:00,34.0,34.0,-100.00,ESE,118,0.0,2.0,98,0.00,,,0.01,0.000000,,2013-05-28 09:11:00,
2013-05-28 01:21:00,34.0,34.0,-100.00,ESE,118,0.0,2.0,98,0.00,,,0.01,0.000000,,2013-05-28 09:21:00,
2013-05-28 01:52:00,34.0,34.0,-100.00,East,93,0.0,2.0,99,0.00,,,0.01,0.000000,,2013-05-28 09:52:00,
2013-05-28 02:12:00,34.0,34.0,-100.00,East,93,0.0,2.0,99,0.00,,,0.01,0.000000,,2013-05-28 10:12:00,
2013-05-28 02:22:00,34.0,34.0,-100.00,East,93,0.0,2.0,99,0.00,,,0.01,0.000000,,2013-05-28 10:22:00,
2013-05-28 02:32:00,34.0,34.0,-100.00,East,93,0.0,2.0,99,0.00,,,0.01,0.000000,,2013-05-28 10:32:00,
2013-05-28 02:42:00,34.0,34.0,-100.00,East,93,0.0,2.0,99,0.00,,,0.01,0.000000,,2013-05-28 10:42:00,
2013-05-28 02:52:00,33.0,33.0,-100.00,East,86,0.0,1.0,100,0.00,,,0.01,0.000000,,2013-05-28 10:52:00,
2013-05-28 03:11:00,33.0,33.0,-100.00,East,86,0.0,1.0,100,0.00,,,0.01,0.000000,,2013-05-28 11:11:00,
2013-05-28 03:22:00,33.0,33.0,-100.00,East,86,0.0,1.0,100,0.00,,,0.01,0.000000,,2013-05-28 11:22:00,
2013-05-28 03:32:00,33.0,33.0,-100.00,East,86,0.0,1.0,100,0.00,,,0.01,0.000000,,2013-05-28 11:32:00,
2013-05-28 03:41:00,33.0,33.0,-100.00,East,86,0.0,1.0,100,0.00,,,0.01,0.000000,,2013-05-28 11:41:00,
2013-05-28 03:52:00,31.0,31.0,-100.00,East,91,0.0,1.0,100,0.00,,,0.00,0.000000,,2013-05-28 11:52:00,
2013-05-28 04:11:00,31.0,31.0,-100.00,East,91,0.0,1.0,100,0.00,,,0.00,0.000000,,2013-05-28 12:11:00,
2013-05-28 04:21:00,31.0,31.0,-100.00,East,91,0.0,1.0,100,0.00,,,0.00,0.000000,,2013-05-28 12:21:00,
2013-05-28 04:31:00,31.0,31.0,-100.00,East,91,0.0,1.0,100,0.00,,,0.00,0.000000,,2013-05-28 12:31:00,
2013-05-28 04:42:00,31.0,31.0,-100.00,East,91,0.0,1.0,100,0.00,,,0.00,0.000000,,2013-05-28 12:42:00,
2013-05-28 04:52:00,31.0,31.0,-100.00,ENE,67,0.0,1.0,100,0.00,,,0.00,0.000000,,2013-05-28 12:52:00,
2013-05-28 05:11:00,31.0,31.0,-100.00,ENE,67,0.0,1.0,100,0.00,,,0.00,0.000000,,2013-05-28 13:11:00,
2013-05-28 05:21:00,31.0,31.0,-100.00,ENE,67,0.0,1.0,100,0.00,,,0.00,0.000000,,2013-05-28 13:21:00,
2013-05-28 05:32:00,31.0,31.0,-100.00,ENE,67,0.0,1.0,100,0.00,,,0.00,0.000000,,2013-05-28 13:32:00,
2013-05-28 05:42:00,31.0,31.0,-100.00,ENE,67,0.0,1.0,100,0.00,,,0.00,0.000000,,2013-05-28 13:42:00,
2013-05-28 06:11:00,31.0,31.0,-100.00,ENE,61,0.0,2.0,100,0.00,,,0.00,7.000000,,2013-05-28 14:11:00,
2013-05-28 06:41:00,31.0,31.0,-100.00,ENE,61,0.0,2.0,100,0.00,,,0.00,7.000000,,2013-05-28 14:41:00,
2013-05-28 06:51:00,31.0,31.0,-100.00,ENE,61,0.0,2.0,100,0.00,,,0.00,7.000000,,2013-05-28 14:51:00,
2013-05-28 06:52:00,34.0,34.0,-100.00,East,79,0.0,1.0,100,0.00,,,0.00,21.000000,,2013-05-28 14:52:00,
2013-05-28 07:11:00,34.0,34.0,-100.00,East,79,0.0,1.0,100,0.00,,,0.00,21.000000,,2013-05-28 15:11:00,
2013-05-28 07:21:00,34.0,34.0,-100.00,East,79,0.0,1.0,100,0.00,,,0.00,21.000000,,2013-05-28 15:21:00,
2013-05-28 07:32:00,34.0,34.0,-100.00,East,79,0.0,1.0,100,0.00,,,0.00,21.000000,,2013-05-28 15:32:00,
2013-05-28 07:43:00,34.0,34.0,-100.00,East,79,0.0,1.0,100,0.00,,,0.00,21.000000,,2013-05-28 15:43:00,
2013-05-28 07:52:00,42.0,42.0,-100.00,North,350,0.0,1.0,100,0.00,,,0.00,65.000000,,2013-05-28 15:52:00,
2013-05-28 08:12:00,42.0,42.0,-100.00,North,350,0.0,1.0,100,0.00,,,0.00,65.000000,,2013-05-28 16:12:00,
2013-05-28 08:22:00,42.0,42.0,-100.00,North,350,0.0,1.0,100,0.00,,,0.00,65.000000,,2013-05-28 16:22:00,
2013-05-28 08:33:00,42.0,42.0,-100.00,North,350,0.0,1.0,100,0.00,,,0.00,65.000000,,2013-05-28 16:33:00,
2013-05-28 08:42:00,42.0,42.0,-100.00,North,350,0.0,1.0,100,0.00,,,0.00,65.000000,,2013-05-28 16:42:00,
2013-05-28 09:12:00,48.0,46.0,-100.00,NW,326,1.0,4.0,92,0.00,,,0.00,134.000000,,2013-05-28 17:12:00,
2013-05-28 09:22:00,48.0,46.0,-100.00,NW,326,1.0,4.0,92,0.00,,,0.00,134.000000,,2013-05-28 17:22:00,
2013-05-28 09:32:00,48.0,46.0,-100.00,NW,326,1.0,4.0,92,0.00,,,0.00,134.000000,,2013-05-28 17:32:00,
2013-05-28 09:41:00,48.0,46.0,-100.00,NW,326,1.0,4.0,92,0.00,,,0.00,134.000000,,2013-05-28 17:41:00,
2013-05-28 09:51:00,48.0,46.0,-100.00,NW,326,1.0,4.0,92,0.00,,,0.00,134.000000,,2013-05-28 17:51:00,
2013-05-28 10:11:00,56.0,44.0,-100.00,NW,309,2.0,5.0,63,0.00,,,0.00,319.000000,,2013-05-28 18:11:00,
2013-05-28 10:21:00,56.0,44.0,-100.00,NW,309,2.0,5.0,63,0.00,,,0.00,319.000000,,2013-05-28 18:21:00,
2013-05-28 10:42:00,56.0,44.0,-100.00,NW,309,2.0,5.0,63,0.00,,,0.00,319.000000,,2013-05-28 18:42:00,
2013-05-28 11:11:00,62.0,43.0,-100.00,NW,321,2.0,6.0,50,-99.99,,,0.00,410.000000,,2013-05-28 19:11:00,
2013-05-28 11:21:00,62.0,43.0,-100.00,NW,321,2.0,6.0,50,-99.99,,,0.00,410.000000,,2013-05-28 19:21:00,
2013-05-28 12:11:00,68.0,45.0,-100.00,NW,316,2.0,6.0,44,-99.99,,,0.00,749.000000,,2013-05-28 20:11:00,
2013-05-28 12:22:00,68.0,45.0,-100.00,NW,316,2.0,6.0,44,-99.99,,,0.00,749.000000,,2013-05-28 20:22:00,
2013-05-28 13:11:00,70.0,43.0,-100.00,NW,319,3.0,6.0,37,-99.99,,,0.00,839.000000,,2013-05-28 21:11:00,
2013-05-28 13:21:00,70.0,43.0,-100.00,NW,319,3.0,6.0,37,-99.99,,,0.00,839.000000,,2013-05-28 21:21:00,
2013-05-28 14:12:00,74.0,43.0,-100.00,WNW,303,3.0,7.0,33,-99.99,,,0.00,893.000000,,2013-05-28 22:12:00,
2013-05-28 15:11:00,76.0,42.0,-100.00,WNW,301,3.0,8.0,30,-99.99,,,0.00,906.000000,,2013-05-28 23:11:00,
2013-05-28 15:21:00,76.0,42.0,-100.00,WNW,301,3.0,8.0,30,-99.99,,,0.00,906.000000,,2013-05-28 23:21:00,
2013-05-28 16:11:00,76.0,40.0,-100.00,NNW,328,3.0,9.0,27,-99.99,,,0.00,875.000000,,2013-05-29 00:11:00,
2013-05-28 16:21:00,76.0,40.0,-100.00,NNW,328,3.0,9.0,27,-99.99,,,0.00,875.000000,,2013-05-29 00:21:00,
2013-05-28 17:11:00,76.0,40.0,-100.00,NNW,336,3.0,8.0,27,-99.99,,,0.00,800.000000,,2013-05-29 01:11:00,
2013-05-28 17:22:00,76.0,40.0,-100.00,NNW,336,3.0,8.0,27,-99.99,,,0.00,800.000000,,2013-05-29 01:22:00,
2013-05-28 18:12:00,73.0,39.0,-100.00,NW,313,2.0,8.0,29,-99.99,,,0.00,257.000000,,2013-05-29 02:12:00,
2013-05-28 19:12:00,73.0,38.0,-100.00,NW,324,2.0,7.0,28,-99.99,,,0.00,157.000000,,2013-05-29 03:12:00,
2013-05-28 19:21:00,73.0,38.0,-100.00,NW,324,2.0,7.0,28,-99.99,,,0.00,157.000000,,2013-05-29 03:21:00,
2013-05-28 20:12:00,72.0,39.0,-100.00,NW,308,1.0,6.0,30,-99.99,,,0.00,138.000000,,2013-05-29 04:12:00,
2013-05-28 20:23:00,72.0,39.0,-100.00,NW,308,1.0,6.0,30,-99.99,,,0.00,138.000000,,2013-05-29 04:23:00,
2013-05-28 20:52:00,68.0,34.0,-100.00,NW,320,0.0,4.0,28,-99.99,,,0.00,102.000000,,2013-05-29 04:52:00,
2013-05-28 21:12:00,68.0,34.0,-100.00,NW,320,0.0,4.0,28,-99.99,,,0.00,102.000000,,2013-05-29 05:12:00,
2013-05-28 21:22:00,68.0,34.0,-100.00,NW,320,0.0,4.0,28,-99.99,,,0.00,102.000000,,2013-05-29 05:22:00,
2013-05-28 21:32:00,68.0,34.0,-100.00,NW,320,0.0,4.0,28,-99.99,,,0.00,102.000000,,2013-05-29 05:32:00,
2013-05-28 21:42:00,68.0,34.0,-100.00,NW,320,0.0,4.0,28,-99.99,,,0.00,102.000000,,2013-05-29 05:42:00,
2013-05-28 22:11:00,62.0,35.0,-100.00,WSW,254,0.0,1.0,37,0.00,,,0.00,47.000000,,2013-05-29 06:11:00,
2013-05-28 22:21:00,62.0,35.0,-100.00,WSW,254,0.0,1.0,37,0.00,,,0.00,47.000000,,2013-05-29 06:21:00,
2013-05-28 22:31:00,62.0,35.0,-100.00,WSW,254,0.0,1.0,37,0.00,,,0.00,47.000000,,2013-05-29 06:31:00,
2013-05-28 22:41:00,62.0,35.0,-100.00,WSW,254,0.0,1.0,37,0.00,,,0.00,47.000000,,2013-05-29 06:41:00,
2013-05-28 22:51:00,62.0,35.0,-100.00,WSW,254,0.0,1.0,37,0.00,,,0.00,47.000000,,2013-05-29 06:51:00,
2013-05-28 22:52:00,55.0,39.0,-100.00,NNW,337,0.0,0.0,55,0.00,,,0.00,14.000000,,2013-05-29 06:52:00,
2013-05-28 23:11:00,55.0,39.0,-100.00,NNW,337,0.0,0.0,55,0.00,,,0.00,14.000000,,2013-05-29 07:11:00,
2013-05-28 23:21:00,55.0,39.0,-100.00,NNW,337,0.0,0.0,55,0.00,,,0.00,14.000000,,2013-05-29 07:21:00,
2013-05-28 23:34:00,55.0,39.0,-100.00,NNW,337,0.0,0.0,55,0.00,,,0.00,14.000000,,2013-05-29 07:34:00,
2013-05-28 23:42:00,55.0,39.0,-100.00,NNW,337,0.0,0.0,55,0.00,,,0.00,14.000000,,2013-05-29 07:42:00,